Speedwell, North Carolina
Current Conditions -  °F | °C
As of 7:16 AM on Sunday 21 Dec 2014 (Local Time) from KAVL Reporting Station
Overcast Overcast  
Wind Chill: 39°   Ceiling: 1500
Heat Index: 39°   Visibility: 8mi
Dew Point: 37°   Wind: 0mph
Humidity: 93%   Direction: NA
Pressure: 30.21"   Gusts: NA
Location:  35.2608°N, 83.1173°W
Report Text: KAVL 211216Z 00000KT 8SM OVC015 04/03 A3021 RMK AO2 T00390028
Loading
Personal Weather Stations






























Interactive Weather Map New forecast layout! Learn more

10-Day Weather Forecast

Advertisements
Track Severe Weather on mobile